Time;durP1;ratioP1;P1;durP2;ratioP2;P2;SDS_P1;SDS_P2;PMS_P1;PMS_P2;Temp;Humidity;BMP_temperature;BMP_pressure;BME280_temperature;BME280_humidity;BME280_pressure;Samples;Min_cycle;Max_cycle;Signal;HPM_P1;HPM_P2
2021/09/24 00:00:08;;;;;;;3.80;3.25;;;10.80;99.90;;;;;;1863699;76;21088;-74
2021/09/24 00:02:35;;;;;;;4.62;3.72;;;10.80;99.90;;;;;;1863154;75;21112;-75
2021/09/24 00:05:01;;;;;;;5.08;3.72;;;10.70;99.90;;;;;;1856581;76;21162;-75
2021/09/24 00:07:27;;;;;;;5.58;2.92;;;10.70;99.90;;;;;;1854520;76;21108;-74
2021/09/24 00:09:53;;;;;;;5.55;3.77;;;10.70;99.90;;;;;;1858037;76;21100;-74
2021/09/24 00:12:19;;;;;;;3.47;3.02;;;10.60;99.90;;;;;;1863129;76;21611;-74
2021/09/24 00:14:45;;;;;;;5.17;3.60;;;10.60;99.90;;;;;;1867990;75;21512;-76
2021/09/24 00:17:12;;;;;;;4.28;3.65;;;10.50;99.90;;;;;;1857911;76;21536;-75
2021/09/24 00:19:38;;;;;;;4.03;3.62;;;10.60;99.90;;;;;;1863062;76;21174;-75
2021/09/24 00:22:04;;;;;;;4.15;3.75;;;10.50;99.90;;;;;;1863196;75;21233;-75
2021/09/24 00:24:30;;;;;;;7.15;3.87;;;10.60;99.90;;;;;;1858652;76;21100;-75
2021/09/24 00:26:57;;;;;;;3.98;3.35;;;10.60;99.90;;;;;;1863101;76;21237;-75
2021/09/24 00:29:23;;;;;;;6.25;3.92;;;10.60;99.90;;;;;;1866499;75;21183;-76
2021/09/24 00:31:49;;;;;;;5.60;3.35;;;10.60;99.90;;;;;;1853304;76;21100;-75
2021/09/24 00:34:15;;;;;;;5.72;3.67;;;10.60;99.90;;;;;;1863037;76;21053;-75
2021/09/24 00:36:41;;;;;;;6.67;3.27;;;10.50;99.90;;;;;;1877882;75;21100;-76
2021/09/24 00:39:07;;;;;;;8.50;3.98;;;10.50;99.90;;;;;;1872789;75;21174;-75
2021/09/24 00:41:33;;;;;;;6.20;3.65;;;10.40;99.90;;;;;;1864741;75;21177;-73
2021/09/24 00:43:59;;;;;;;4.12;3.70;;;10.50;99.90;;;;;;1861246;76;21061;-75
2021/09/24 00:46:26;;;;;;;4.10;3.70;;;10.50;99.90;;;;;;1853292;76;21512;-74
2021/09/24 00:48:52;;;;;;;4.37;3.40;;;10.50;99.90;;;;;;1863097;76;21472;-75
2021/09/24 00:51:18;;;;;;;8.03;3.65;;;10.30;99.90;;;;;;1858165;76;21532;-76
2021/09/24 00:53:44;;;;;;;4.62;3.22;;;10.40;99.90;;;;;;1853238;76;21516;-74
2021/09/24 00:56:10;;;;;;;4.83;3.83;;;10.30;99.90;;;;;;1859815;76;21248;-74
2021/09/24 00:58:36;;;;;;;5.37;3.40;;;10.40;99.90;;;;;;1861642;76;21096;-74
2021/09/24 01:01:02;;;;;;;5.33;3.62;;;10.40;99.90;;;;;;1861268;76;21159;-74
2021/09/24 01:03:29;;;;;;;4.95;3.67;;;10.30;99.90;;;;;;1853350;76;21093;-73
2021/09/24 01:05:55;;;;;;;4.92;3.92;;;10.30;99.90;;;;;;1853293;76;21164;-74
2021/09/24 01:08:21;;;;;;;3.58;3.12;;;10.30;99.90;;;;;;1853269;76;21166;-75
2021/09/24 01:10:47;;;;;;;4.08;3.65;;;10.30;99.90;;;;;;1868135;76;21088;-74
2021/09/24 01:13:13;;;;;;;5.80;3.75;;;10.40;99.90;;;;;;1870903;75;21092;-74
2021/09/24 01:15:39;;;;;;;6.72;3.80;;;10.40;99.90;;;;;;1864871;76;21088;-74
2021/09/24 01:18:05;;;;;;;4.55;3.50;;;10.30;99.90;;;;;;1858160;76;21092;-75
2021/09/24 01:20:31;;;;;;;6.05;3.27;;;10.30;99.90;;;;;;1858180;76;21096;-75
2021/09/24 01:22:58;;;;;;;4.80;3.80;;;10.30;99.90;;;;;;1856928;76;21093;-75
2021/09/24 01:25:24;;;;;;;4.60;3.42;;;10.30;99.90;;;;;;1864086;76;21098;-75
2021/09/24 01:27:50;;;;;;;4.03;3.62;;;10.20;99.90;;;;;;1858152;76;21284;-74
2021/09/24 01:30:16;;;;;;;5.50;3.55;;;10.20;99.90;;;;;;1863092;76;21517;-74
2021/09/24 01:32:42;;;;;;;4.20;3.42;;;10.10;99.90;;;;;;1857781;76;21434;-73
2021/09/24 01:35:08;;;;;;;3.22;2.95;;;10.10;99.90;;;;;;1868074;76;21061;-75
2021/09/24 01:37:34;;;;;;;7.03;3.20;;;10.00;99.90;;;;;;1862991;76;21146;-73
2021/09/24 01:40:01;;;;;;;5.37;3.55;;;10.00;99.90;;;;;;1858355;76;21260;-75
2021/09/24 01:42:27;;;;;;;5.40;3.75;;;10.00;99.90;;;;;;1877315;75;21096;-75
2021/09/24 01:44:53;;;;;;;7.85;3.95;;;10.00;99.90;;;;;;1863012;76;21183;-75
2021/09/24 01:47:19;;;;;;;3.62;3.33;;;10.00;99.90;;;;;;1857303;76;21453;-74
2021/09/24 01:49:45;;;;;;;7.67;3.65;;;10.00;99.90;;;;;;1858184;76;21472;-75
2021/09/24 01:52:11;;;;;;;4.42;3.40;;;10.00;99.90;;;;;;1858140;76;21569;-75
2021/09/24 01:54:38;;;;;;;8.23;3.72;;;9.90;99.90;;;;;;1863052;75;21186;-75
2021/09/24 01:57:04;;;;;;;5.85;4.12;;;9.90;99.90;;;;;;1854312;76;21089;-75
2021/09/24 01:59:30;;;;;;;5.62;3.62;;;10.00;99.90;;;;;;1866615;75;21111;-75
2021/09/24 02:01:56;;;;;;;5.12;3.58;;;10.00;99.90;;;;;;1862952;76;21061;-73
2021/09/24 02:04:22;;;;;;;3.75;3.37;;;10.00;99.90;;;;;;1864816;75;21501;-74
2021/09/24 02:06:48;;;;;;;3.20;3.00;;;10.10;99.90;;;;;;1877869;76;21504;-75
2021/09/24 02:09:15;;;;;;;3.80;3.40;;;10.00;99.90;;;;;;1856001;76;21495;-75
2021/09/24 02:11:41;;;;;;;5.47;3.95;;;10.00;99.90;;;;;;1867983;76;21485;-74
2021/09/24 02:14:07;;;;;;;4.33;3.92;;;9.90;99.90;;;;;;1858128;76;21522;-74
2021/09/24 02:16:33;;;;;;;3.80;3.50;;;9.90;99.90;;;;;;1858168;76;21092;-74
2021/09/24 02:18:59;;;;;;;5.10;3.58;;;9.90;99.90;;;;;;1858844;76;21177;-73
2021/09/24 02:21:25;;;;;;;3.80;3.50;;;9.80;99.90;;;;;;1860342;76;21092;-74
2021/09/24 02:23:51;;;;;;;5.67;4.25;;;9.80;99.90;;;;;;1870200;76;21162;-74
2021/09/24 02:26:17;;;;;;;4.95;4.12;;;9.80;99.90;;;;;;1869341;76;21182;-74
2021/09/24 02:28:44;;;;;;;4.75;3.92;;;9.90;99.90;;;;;;1868154;76;21078;-75
2021/09/24 02:31:10;;;;;;;3.62;3.33;;;9.90;99.90;;;;;;1867258;76;21080;-74
2021/09/24 02:33:37;;;;;;;5.92;4.58;;;9.80;99.90;;;;;;1859076;76;21284;-74
2021/09/24 02:36:03;;;;;;;5.03;4.03;;;9.80;99.90;;;;;;1872839;76;21088;-74
2021/09/24 02:38:29;;;;;;;4.22;3.70;;;9.90;99.90;;;;;;1854008;76;21162;-75
2021/09/24 02:40:55;;;;;;;4.70;3.58;;;9.80;99.90;;;;;;1863557;76;21162;-74
2021/09/24 02:43:21;;;;;;;4.15;3.72;;;9.80;99.90;;;;;;1863526;75;21081;-75
2021/09/24 02:45:47;;;;;;;3.80;3.37;;;9.90;99.90;;;;;;1858616;76;21244;-75
2021/09/24 02:48:13;;;;;;;5.60;3.67;;;9.80;99.90;;;;;;1863414;76;21092;-75
2021/09/24 02:50:39;;;;;;;5.47;3.60;;;9.80;99.90;;;;;;1864252;76;21096;-74
2021/09/24 02:53:07;;;;;;;8.00;4.08;;;9.80;99.90;;;;;;1862750;76;21096;-75
2021/09/24 02:55:33;;;;;;;6.92;3.95;;;9.80;99.90;;;;;;1859829;76;21179;-75
2021/09/24 02:57:59;;;;;;;7.45;4.10;;;9.70;99.90;;;;;;1863738;75;21053;-75
2021/09/24 03:00:26;;;;;;;6.22;3.98;;;9.70;99.90;;;;;;1861872;76;21100;-75
2021/09/24 03:02:52;;;;;;;4.70;3.60;;;9.70;99.90;;;;;;1870581;76;21084;-75
2021/09/24 03:05:18;;;;;;;7.60;4.33;;;9.70;99.90;;;;;;1861525;76;21170;-74
2021/09/24 03:07:44;;;;;;;5.70;4.25;;;9.60;99.90;;;;;;1863656;76;21287;-75
2021/09/24 03:10:11;;;;;;;4.20;3.72;;;9.70;99.90;;;;;;1858622;76;21108;-75
2021/09/24 03:12:37;;;;;;;7.42;3.80;;;9.60;99.90;;;;;;1863706;76;21169;-75
2021/09/24 03:15:03;;;;;;;6.22;4.37;;;9.60;99.90;;;;;;1868514;75;21492;-75
2021/09/24 03:17:29;;;;;;;4.92;3.95;;;9.60;99.90;;;;;;1861879;76;21469;-74
2021/09/24 03:19:55;;;;;;;5.12;4.10;;;9.50;99.90;;;;;;1863738;76;21601;-75
2021/09/24 03:22:21;;;;;;;5.20;3.75;;;9.50;99.90;;;;;;1858612;76;21163;-75
2021/09/24 03:24:47;;;;;;;4.67;4.28;;;9.60;99.90;;;;;;1864885;76;21100;-75
2021/09/24 03:27:13;;;;;;;12.25;4.20;;;9.50;99.90;;;;;;1858609;76;21092;-75
2021/09/24 03:29:40;;;;;;;5.22;4.58;;;9.60;99.90;;;;;;1858581;76;21139;-75
2021/09/24 03:32:06;;;;;;;7.12;4.45;;;9.50;99.90;;;;;;1863504;76;21231;-74
2021/09/24 03:34:32;;;;;;;5.40;4.03;;;9.50;99.90;;;;;;1863227;76;21092;-75
2021/09/24 03:36:58;;;;;;;5.28;4.17;;;9.50;99.90;;;;;;1858945;76;21092;-75
2021/09/24 03:39:24;;;;;;;4.28;3.87;;;9.50;99.90;;;;;;1868549;76;21096;-75
2021/09/24 03:41:52;;;;;;;5.80;4.15;;;9.40;99.90;;;;;;1863673;76;21088;-75
2021/09/24 03:44:18;;;;;;;7.42;4.12;;;9.50;99.90;;;;;;1858672;76;21104;-76
2021/09/24 03:46:44;;;;;;;6.95;4.30;;;9.40;99.90;;;;;;1863661;76;21111;-75
2021/09/24 03:49:10;;;;;;;4.92;4.42;;;9.40;99.90;;;;;;1863593;76;21165;-75
2021/09/24 03:51:36;;;;;;;4.45;3.70;;;9.50;99.90;;;;;;1854795;75;21170;-75
2021/09/24 03:54:02;;;;;;;7.55;4.58;;;9.50;99.90;;;;;;1868580;76;21170;-74
2021/09/24 03:56:29;;;;;;;4.60;3.72;;;9.40;99.90;;;;;;1862426;76;21171;-75
2021/09/24 03:58:55;;;;;;;9.03;5.03;;;9.40;99.90;;;;;;1858793;76;21551;-75
2021/09/24 04:01:21;;;;;;;5.80;4.15;;;9.40;99.90;;;;;;1863555;76;21465;-75
2021/09/24 04:03:47;;;;;;;4.70;3.92;;;9.40;99.90;;;;;;1865484;76;21573;-75
2021/09/24 04:06:13;;;;;;;7.45;4.20;;;9.40;99.90;;;;;;1861649;76;21092;-75
2021/09/24 04:08:39;;;;;;;4.28;3.85;;;9.40;99.90;;;;;;1870677;76;21088;-75
2021/09/24 04:11:05;;;;;;;5.53;4.03;;;9.30;99.90;;;;;;1863454;75;21100;-75
2021/09/24 04:13:31;;;;;;;5.40;4.35;;;9.30;99.90;;;;;;1856397;76;21097;-75
2021/09/24 04:15:57;;;;;;;4.33;3.92;;;9.30;99.90;;;;;;1858645;76;21147;-75
2021/09/24 04:18:24;;;;;;;5.67;4.35;;;9.30;99.90;;;;;;1863776;76;21196;-72
2021/09/24 04:20:50;;;;;;;4.83;4.25;;;9.30;99.90;;;;;;1853932;76;21096;-73
2021/09/24 04:23:16;;;;;;;4.85;4.30;;;9.20;99.90;;;;;;1858837;76;21154;-75
2021/09/24 04:25:42;;;;;;;6.95;4.20;;;9.20;99.90;;;;;;1853863;76;21146;-74
2021/09/24 04:28:08;;;;;;;4.70;4.30;;;9.20;99.90;;;;;;1868672;76;21178;-74
2021/09/24 04:30:34;;;;;;;6.80;4.72;;;9.20;99.90;;;;;;1863561;76;21057;-76
2021/09/24 04:33:00;;;;;;;6.85;4.53;;;9.20;99.90;;;;;;1863709;76;21224;-74
2021/09/24 04:35:26;;;;;;;4.45;4.05;;;9.10;99.90;;;;;;1863519;76;21292;-73
2021/09/24 04:37:53;;;;;;;4.47;3.92;;;9.20;99.90;;;;;;1853820;76;21186;-74
2021/09/24 04:40:19;;;;;;;5.15;4.65;;;9.10;99.90;;;;;;1863704;76;21470;-74
2021/09/24 04:42:45;;;;;;;11.10;4.83;;;9.10;99.90;;;;;;1868258;76;21469;-75
2021/09/24 04:45:11;;;;;;;5.95;4.42;;;9.20;99.90;;;;;;1873458;76;21520;-74
2021/09/24 04:47:37;;;;;;;9.55;5.05;;;9.20;99.90;;;;;;1863448;75;21208;-74
2021/09/24 04:50:03;;;;;;;7.47;4.72;;;9.20;99.90;;;;;;1863508;76;21245;-74
2021/09/24 04:52:29;;;;;;;8.10;5.42;;;9.10;99.90;;;;;;1863653;75;21096;-74
2021/09/24 04:54:55;;;;;;;6.87;5.30;;;9.00;99.90;;;;;;1854550;76;21093;-74
2021/09/24 04:57:22;;;;;;;7.08;5.25;;;9.10;99.90;;;;;;1867740;76;21068;-75
2021/09/24 04:59:48;;;;;;;8.83;4.65;;;9.00;99.90;;;;;;1857708;76;21170;-74
2021/09/24 05:02:14;;;;;;;6.58;5.17;;;9.10;99.90;;;;;;1863597;75;21161;-77
2021/09/24 05:04:41;;;;;;;7.90;4.83;;;9.00;99.90;;;;;;1868499;76;21523;-73
2021/09/24 05:07:07;;;;;;;6.17;4.83;;;9.20;99.90;;;;;;1863673;76;21092;-76
2021/09/24 05:09:33;;;;;;;5.60;4.20;;;9.10;99.90;;;;;;1868598;75;21173;-74
2021/09/24 05:11:59;;;;;;;4.70;4.22;;;9.10;99.90;;;;;;1853830;76;21159;-74
2021/09/24 05:14:25;;;;;;;4.67;4.25;;;9.10;99.90;;;;;;1853799;76;21097;-74
2021/09/24 05:16:51;;;;;;;6.60;4.67;;;9.10;99.90;;;;;;1865085;75;21064;-74
2021/09/24 05:19:17;;;;;;;6.50;4.72;;;9.10;99.90;;;;;;1861603;76;21100;-74
2021/09/24 05:21:44;;;;;;;5.17;4.67;;;9.00;99.90;;;;;;1874811;76;21169;-74
2021/09/24 05:24:10;;;;;;;4.70;4.15;;;9.20;99.90;;;;;;1866529;76;21104;-74
2021/09/24 05:26:37;;;;;;;5.15;4.33;;;9.10;99.90;;;;;;1868411;76;21566;-75
2021/09/24 05:29:03;;;;;;;5.92;4.70;;;9.20;99.90;;;;;;1858764;76;21092;-74
2021/09/24 05:31:29;;;;;;;5.75;4.78;;;9.20;99.90;;;;;;1863660;75;21093;-74
2021/09/24 05:33:55;;;;;;;6.28;4.33;;;9.20;99.90;;;;;;1866926;76;21127;-74
2021/09/24 05:36:21;;;;;;;6.55;5.00;;;9.30;99.90;;;;;;1857842;76;21096;-74
2021/09/24 05:38:48;;;;;;;15.28;5.22;;;9.30;99.90;;;;;;1859764;76;21096;-73
2021/09/24 05:41:14;;;;;;;6.87;4.55;;;9.30;99.90;;;;;;1872193;76;21092;-73
2021/09/24 05:43:40;;;;;;;7.55;5.10;;;9.40;99.90;;;;;;1863516;75;21240;-75
2021/09/24 05:46:06;;;;;;;6.80;5.17;;;9.40;99.90;;;;;;1864339;76;21210;-76
2021/09/24 05:48:32;;;;;;;4.83;4.20;;;9.40;99.90;;;;;;1853608;76;21175;-76
2021/09/24 05:50:58;;;;;;;7.33;5.05;;;9.50;99.90;;;;;;1863496;76;21080;-74
2021/09/24 05:53:24;;;;;;;7.05;5.15;;;9.50;99.90;;;;;;1853568;77;21088;-77
2021/09/24 05:55:50;;;;;;;12.73;5.92;;;9.60;99.90;;;;;;1858446;76;21162;-75
2021/09/24 05:58:17;;;;;;;7.10;5.08;;;9.60;99.90;;;;;;1853562;76;21092;-72
2021/09/24 06:00:43;;;;;;;6.83;5.40;;;9.60;99.90;;;;;;1863458;76;21676;-73
2021/09/24 06:03:09;;;;;;;8.05;5.03;;;9.70;99.90;;;;;;1863591;76;21096;-73
2021/09/24 06:05:35;;;;;;;5.30;4.80;;;9.70;99.90;;;;;;1863400;75;21162;-73
2021/09/24 06:08:01;;;;;;;8.15;5.53;;;9.70;99.90;;;;;;1868461;76;21101;-72
2021/09/24 06:10:27;;;;;;;7.92;5.50;;;9.70;99.90;;;;;;1858595;76;21088;-75
2021/09/24 06:12:54;;;;;;;8.90;5.00;;;9.70;99.90;;;;;;1863481;76;21150;-73
2021/09/24 06:15:20;;;;;;;10.80;6.33;;;9.80;99.90;;;;;;1858557;76;21142;-73
2021/09/24 06:17:46;;;;;;;12.43;6.03;;;9.80;99.90;;;;;;1863545;76;21523;-73
2021/09/24 06:20:12;;;;;;;6.83;4.95;;;9.80;99.90;;;;;;1873699;76;21492;-73
2021/09/24 06:22:39;;;;;;;5.65;4.95;;;9.90;99.90;;;;;;1858605;76;21096;-72
2021/09/24 06:25:05;;;;;;;6.70;5.25;;;10.00;99.90;;;;;;1853821;76;21163;-76
2021/09/24 06:27:31;;;;;;;8.08;5.65;;;10.00;99.90;;;;;;1858779;76;21083;-73
2021/09/24 06:29:58;;;;;;;6.47;5.55;;;10.10;99.90;;;;;;1868721;76;21166;-73
2021/09/24 06:32:24;;;;;;;8.85;5.53;;;10.20;99.90;;;;;;1858928;76;21162;-71
2021/09/24 06:34:50;;;;;;;6.50;4.92;;;10.30;99.90;;;;;;1861972;76;21092;-72
2021/09/24 06:37:17;;;;;;;11.48;5.67;;;10.30;99.90;;;;;;1870716;76;21174;-70
2021/09/24 06:39:43;;;;;;;9.78;5.67;;;10.40;99.90;;;;;;1867297;76;21158;-70
2021/09/24 06:42:09;;;;;;;14.83;6.50;;;10.50;99.90;;;;;;1855402;76;21092;-73
2021/09/24 06:44:35;;;;;;;10.88;6.42;;;10.50;99.90;;;;;;1859493;76;21124;-78
2021/09/24 06:47:01;;;;;;;6.95;6.00;;;10.60;99.90;;;;;;1864378;76;21058;-74
2021/09/24 06:49:27;;;;;;;8.63;6.47;;;10.70;99.90;;;;;;1859306;76;21284;-73
2021/09/24 06:51:53;;;;;;;8.88;6.50;;;10.80;99.90;;;;;;1854144;76;21166;-79
2021/09/24 06:54:19;;;;;;;12.25;6.60;;;10.90;99.90;;;;;;1854560;76;21096;-77
2021/09/24 06:56:46;;;;;;;8.68;5.85;;;11.10;99.90;;;;;;1854678;76;21053;-72
2021/09/24 06:59:12;;;;;;;17.55;6.17;;;11.20;99.90;;;;;;1864349;75;21484;-73
2021/09/24 07:01:38;;;;;;;12.00;6.00;;;11.30;99.90;;;;;;1864450;76;21898;-73
2021/09/24 07:04:04;;;;;;;12.23;5.97;;;11.50;99.90;;;;;;1868787;75;21643;-74
2021/09/24 07:06:30;;;;;;;17.60;6.08;;;11.60;99.90;;;;;;1854735;76;21512;-74
2021/09/24 07:08:56;;;;;;;14.50;5.90;;;11.80;99.90;;;;;;1868316;75;21496;-73
2021/09/24 07:11:24;;;;;;;16.00;6.78;;;11.90;99.90;;;;;;1855691;76;21489;-74
2021/09/24 07:13:50;;;;;;;13.08;7.45;;;12.10;99.90;;;;;;1857987;76;21073;-75
2021/09/24 07:16:16;;;;;;;12.65;6.65;;;12.20;99.90;;;;;;1854880;76;21162;-75
2021/09/24 07:18:42;;;;;;;9.58;5.90;;;12.40;99.90;;;;;;1854494;76;21096;-74
2021/09/24 07:21:10;;;;;;;9.78;6.97;;;12.60;99.90;;;;;;1856158;76;21497;-75
2021/09/24 07:23:36;;;;;;;18.90;6.92;;;12.70;99.90;;;;;;1856121;76;21105;-74
2021/09/24 07:26:02;;;;;;;15.65;6.47;;;12.80;99.90;;;;;;1858919;76;21092;-74
2021/09/24 07:28:29;;;;;;;11.53;6.42;;;12.90;99.90;;;;;;1868641;76;21096;-73
2021/09/24 07:30:55;;;;;;;11.50;6.95;;;12.90;99.90;;;;;;1853847;76;21193;-73
2021/09/24 07:33:21;;;;;;;12.93;6.75;;;13.00;99.90;;;;;;1858860;76;21097;-74
2021/09/24 07:35:47;;;;;;;11.88;6.37;;;13.10;99.90;;;;;;1853692;77;21084;-73
2021/09/24 07:38:13;;;;;;;12.05;6.53;;;13.30;99.90;;;;;;1858624;76;21174;-73
2021/09/24 07:40:39;;;;;;;11.83;6.05;;;13.40;99.90;;;;;;1872630;76;21207;-72
2021/09/24 07:43:06;;;;;;;21.23;6.87;;;13.50;99.90;;;;;;1864184;75;21151;-73
2021/09/24 07:45:32;;;;;;;8.05;5.83;;;13.70;99.90;;;;;;1868161;75;21166;-73
2021/09/24 07:47:58;;;;;;;9.00;5.80;;;13.80;99.90;;;;;;1863552;76;21088;-73
2021/09/24 07:50:24;;;;;;;11.05;5.78;;;14.10;99.90;;;;;;1858568;76;21183;-74
2021/09/24 07:52:50;;;;;;;12.03;5.97;;;14.20;99.90;;;;;;1863525;76;21057;-74
2021/09/24 07:55:16;;;;;;;8.55;5.55;;;14.50;99.90;;;;;;1858618;76;21170;-73
2021/09/24 07:57:44;;;;;;;8.43;5.40;;;14.60;99.90;;;;;;1858550;76;21536;-74
2021/09/24 08:00:10;;;;;;;6.95;5.37;;;14.70;99.90;;;;;;1864787;76;21088;-75
2021/09/24 08:02:36;;;;;;;7.87;5.20;;;15.00;99.90;;;;;;1858798;75;21100;-75
2021/09/24 08:05:02;;;;;;;9.83;5.35;;;15.20;99.90;;;;;;1862282;76;21076;-73
2021/09/24 08:07:31;;;;;;;7.50;5.55;;;15.60;99.90;;;;;;1858582;76;21096;-75
2021/09/24 08:09:57;;;;;;;8.88;5.42;;;15.50;99.90;;;;;;1858578;76;21154;-73
2021/09/24 08:12:23;;;;;;;11.22;5.33;;;15.80;99.90;;;;;;1853790;76;21109;-73
2021/09/24 08:14:49;;;;;;;11.78;5.50;;;16.00;99.90;;;;;;1868395;76;21063;-73
2021/09/24 08:17:16;;;;;;;10.15;5.22;;;16.10;99.90;;;;;;1861693;75;21167;-72
2021/09/24 08:19:42;;;;;;;9.75;4.97;;;16.40;99.90;;;;;;1855380;76;21100;-74
2021/09/24 08:22:08;;;;;;;8.28;5.60;;;16.90;99.90;;;;;;1858698;76;21061;-73
2021/09/24 08:24:34;;;;;;;7.37;4.85;;;17.30;99.90;;;;;;1867083;76;21243;-74
2021/09/24 08:27:00;;;;;;;6.00;4.85;;;17.70;99.90;;;;;;1864844;76;21170;-73
2021/09/24 08:29:26;;;;;;;5.30;4.25;;;17.80;99.90;;;;;;1857607;75;21226;-72
2021/09/24 08:31:52;;;;;;;5.55;4.30;;;18.00;99.90;;;;;;1868616;76;21551;-73
2021/09/24 08:34:18;;;;;;;11.57;4.28;;;18.10;99.90;;;;;;1864304;76;21559;-74
2021/09/24 08:36:45;;;;;;;5.40;3.83;;;18.50;99.90;;;;;;1863491;76;21516;-73
2021/09/24 08:39:11;;;;;;;8.68;4.50;;;19.00;99.90;;;;;;1853622;76;21501;-72
2021/09/24 08:41:37;;;;;;;5.33;4.30;;;19.10;99.90;;;;;;1853696;76;21093;-73
2021/09/24 08:44:03;;;;;;;5.50;4.17;;;19.20;99.90;;;;;;1863211;76;21170;-73
2021/09/24 08:46:33;;;;;;;4.92;4.15;;;18.80;99.90;;;;;;1868878;76;21096;-73
2021/09/24 08:48:57;;;;;;;6.62;4.97;;;19.10;99.90;;;;;;1856538;76;21155;-72
2021/09/24 08:51:24;;;;;;;6.40;4.15;;;19.20;99.90;;;;;;1858503;76;21096;-73
2021/09/24 08:53:50;;;;;;;5.30;3.80;;;19.60;99.90;;;;;;1853620;76;21087;-73
2021/09/24 08:56:16;;;;;;;5.30;4.28;;;19.70;99.90;;;;;;1855305;75;21237;-72
2021/09/24 08:58:42;;;;;;;8.25;4.08;;;19.90;99.90;;;;;;1861625;76;21084;-74
2021/09/24 09:01:08;;;;;;;6.75;3.90;;;20.00;99.90;;;;;;1863470;76;21151;-73
2021/09/24 09:03:34;;;;;;;7.08;4.22;;;20.00;99.90;;;;;;1863470;76;21053;-73
2021/09/24 09:06:03;;;;;;;4.35;3.90;;;20.30;99.90;;;;;;1868339;76;21088;-73
2021/09/24 09:08:29;;;;;;;6.45;3.90;;;20.10;99.90;;;;;;1861612;75;21096;-72
2021/09/24 09:11:00;;;;;;;6.87;3.58;;;20.50;99.90;;;;;;1855069;76;21586;-72
2021/09/24 09:13:25;;;;;;;6.72;4.10;;;20.40;99.90;;;;;;1853684;76;21084;-72
2021/09/24 09:15:52;;;;;;;5.00;3.50;;;20.70;99.90;;;;;;1863451;75;21089;-73
2021/09/24 09:18:18;;;;;;;6.83;3.75;;;20.80;99.90;;;;;;1862939;76;21237;-73
2021/09/24 09:20:44;;;;;;;7.65;4.03;;;20.70;99.90;;;;;;1853668;76;21158;-71
2021/09/24 09:23:10;;;;;;;6.28;4.00;;;21.00;99.90;;;;;;1857803;76;21096;-70
2021/09/24 09:25:37;;;;;;;5.62;3.80;;;21.40;99.90;;;;;;1868262;76;21096;-72
2021/09/24 09:28:03;;;;;;;4.42;3.25;;;21.70;99.90;;;;;;1864716;76;21096;-73
2021/09/24 09:30:29;;;;;;;13.83;3.70;;;21.70;99.90;;;;;;1858661;75;21096;-73
2021/09/24 09:32:55;;;;;;;5.17;3.37;;;22.20;99.90;;;;;;1866977;76;21092;-73
2021/09/24 09:35:23;;;;;;;7.40;3.60;;;21.90;99.90;;;;;;1858737;76;21096;-74
2021/09/24 09:37:49;;;;;;;10.28;3.75;;;21.90;99.90;;;;;;1853800;76;21452;-73
2021/09/24 09:40:16;;;;;;;4.08;3.25;;;22.00;99.90;;;;;;1853767;76;21464;-73
2021/09/24 09:42:42;;;;;;;5.75;3.75;;;22.10;99.90;;;;;;1858947;76;21159;-71
2021/09/24 09:45:09;;;;;;;3.70;3.22;;;21.40;99.90;;;;;;1857344;76;21085;-73
2021/09/24 09:47:36;;;;;;;6.10;3.67;;;21.30;99.90;;;;;;1860649;76;21100;-75
2021/09/24 09:50:02;;;;;;;3.90;3.30;;;21.60;99.90;;;;;;1868315;76;21061;-75
2021/09/24 09:52:32;;;;;;;6.42;3.62;;;22.10;99.90;;;;;;1859444;76;21191;-78
2021/09/24 09:54:59;;;;;;;5.10;3.30;;;22.80;99.90;;;;;;1860421;76;21080;-74
2021/09/24 09:57:27;;;;;;;4.47;3.67;;;23.50;99.90;;;;;;1854421;76;21626;-77
2021/09/24 09:59:53;;;;;;;5.20;3.00;;;23.80;99.90;;;;;;1854478;76;21065;-74
2021/09/24 10:02:19;;;;;;;2.87;2.52;;;23.70;99.90;;;;;;1864953;76;21182;-76
2021/09/24 10:04:45;;;;;;;5.62;3.12;;;23.20;99.90;;;;;;1869119;76;21084;-76
2021/09/24 10:07:12;;;;;;;5.05;3.27;;;23.20;99.90;;;;;;1868668;75;21171;-75
2021/09/24 10:09:38;;;;;;;15.90;3.70;;;23.30;99.90;;;;;;1864999;74;21194;-76
2021/09/24 10:12:04;;;;;;;4.30;2.75;;;22.60;99.90;;;;;;1853383;76;21226;-73
2021/09/24 10:14:30;;;;;;;9.90;3.50;;;23.20;99.90;;;;;;1858281;76;21080;-77
2021/09/24 10:16:59;;;;;;;4.00;3.00;;;23.60;99.90;;;;;;1867914;75;21252;-77
2021/09/24 10:19:24;;;;;;;3.90;2.95;;;22.80;99.90;;;;;;1857383;76;21182;-74
2021/09/24 10:21:50;;;;;;;8.40;2.87;;;22.40;99.90;;;;;;1859093;76;21185;-74
2021/09/24 10:24:16;;;;;;;6.95;3.27;;;22.20;99.90;;;;;;1866800;75;21158;-78
2021/09/24 10:26:42;;;;;;;4.47;2.83;;;22.60;99.90;;;;;;1858914;76;21050;-74
2021/09/24 10:29:08;;;;;;;5.15;2.80;;;22.70;99.90;;;;;;1859238;76;21512;-75
2021/09/24 10:31:35;;;;;;;2.95;2.55;;;22.10;99.90;;;;;;1864396;75;21068;-76
2021/09/24 10:34:01;;;;;;;5.03;2.60;;;21.80;99.90;;;;;;1861704;76;21147;-75
2021/09/24 10:36:28;;;;;;;5.53;2.60;;;21.70;99.90;;;;;;1870741;76;21329;-74
2021/09/24 10:38:54;;;;;;;2.85;2.45;;;21.70;99.90;;;;;;1857529;76;21130;-74
2021/09/24 10:41:20;;;;;;;5.50;2.47;;;21.80;99.90;;;;;;1871648;75;21145;-75
2021/09/24 10:43:46;;;;;;;4.95;2.25;;;21.90;99.90;;;;;;1861973;76;21097;-75
2021/09/24 10:46:12;;;;;;;4.85;2.52;;;22.00;99.90;;;;;;1854840;76;21095;-75
2021/09/24 10:48:38;;;;;;;3.83;2.70;;;21.90;99.90;;;;;;1858659;76;21092;-74
2021/09/24 10:51:04;;;;;;;4.42;3.12;;;21.60;99.90;;;;;;1854098;76;21084;-75
2021/09/24 10:53:30;;;;;;;7.62;2.80;;;21.60;99.90;;;;;;1868686;76;21108;-74
2021/09/24 10:55:57;;;;;;;3.10;2.80;;;22.50;99.90;;;;;;1858911;76;21084;-75
2021/09/24 10:58:23;;;;;;;3.90;3.05;;;22.40;99.90;;;;;;1853829;76;21100;-75
2021/09/24 11:00:49;;;;;;;2.77;2.58;;;22.50;99.90;;;;;;1858895;76;21100;-74
2021/09/24 11:03:15;;;;;;;3.37;2.60;;;22.30;99.90;;;;;;1875060;75;21104;-74
2021/09/24 11:05:41;;;;;;;4.10;2.17;;;22.70;99.90;;;;;;1856800;76;21546;-74
2021/09/24 11:08:07;;;;;;;7.47;2.80;;;22.80;99.90;;;;;;1864809;75;21516;-74
2021/09/24 11:10:33;;;;;;;3.75;2.55;;;22.90;99.90;;;;;;1860953;76;21573;-74
2021/09/24 11:12:59;;;;;;;5.20;2.37;;;23.30;99.90;;;;;;1858220;76;21504;-75
2021/09/24 11:15:26;;;;;;;5.53;2.42;;;24.00;99.90;;;;;;1860601;76;21446;-72
2021/09/24 11:17:52;;;;;;;2.98;1.77;;;24.70;99.90;;;;;;1863206;76;21523;-73
2021/09/24 11:20:18;;;;;;;3.70;2.20;;;25.30;99.90;;;;;;1863097;76;21505;-73
2021/09/24 11:22:45;;;;;;;4.92;2.35;;;25.80;99.90;;;;;;1869961;75;21096;-73
2021/09/24 11:25:11;;;;;;;6.45;4.28;;;26.30;99.90;;;;;;1858290;76;21097;-72
2021/09/24 11:27:37;;;;;;;3.62;2.10;;;25.40;99.90;;;;;;1866991;76;21095;-73
2021/09/24 11:30:05;;;;;;;7.25;2.37;;;24.60;99.90;;;;;;1872372;76;21518;-72
2021/09/24 11:32:32;;;;;;;2.40;1.82;;;24.40;99.90;;;;;;1857151;76;21077;-72
2021/09/24 11:34:59;;;;;;;3.67;1.57;;;24.60;99.90;;;;;;1868359;76;21117;-71
2021/09/24 11:37:25;;;;;;;6.47;2.15;;;25.30;99.90;;;;;;1837524;75;21142;-71
2021/09/24 11:39:51;;;;;;;6.03;2.10;;;25.10;99.90;;;;;;1854397;75;21207;-71
2021/09/24 11:42:17;;;;;;;3.60;1.77;;;24.90;99.90;;;;;;1867698;75;21198;-72
2021/09/24 11:44:43;;;;;;;3.55;1.67;;;25.10;99.90;;;;;;1863678;76;21171;-72
2021/09/24 11:47:09;;;;;;;3.50;1.75;;;25.60;99.90;;;;;;1858508;76;21166;-73
2021/09/24 11:49:35;;;;;;;1.67;1.57;;;26.00;99.90;;;;;;1853424;76;21158;-73
2021/09/24 11:52:02;;;;;;;2.50;1.60;;;25.70;99.90;;;;;;1863777;75;21454;-74
2021/09/24 11:54:28;;;;;;;3.08;1.87;;;25.70;99.90;;;;;;1863353;75;21061;-74
2021/09/24 11:56:54;;;;;;;3.83;2.00;;;26.10;99.90;;;;;;1859342;76;21100;-74
2021/09/24 11:59:20;;;;;;;2.12;1.75;;;26.80;99.90;;;;;;1868539;75;21087;-77
2021/09/24 12:01:46;;;;;;;5.28;1.90;;;25.90;99.90;;;;;;1853852;77;21084;-74
2021/09/24 12:04:15;;;;;;;3.98;1.72;;;25.50;99.90;;;;;;1863612;76;21091;-75
2021/09/24 12:06:42;;;;;;;3.12;1.75;;;26.20;99.90;;;;;;1859305;76;21436;-74
2021/09/24 12:09:09;;;;;;;2.20;1.70;;;26.60;99.90;;;;;;1863572;76;21065;-74
2021/09/24 12:11:37;;;;;;;1.95;1.75;;;26.60;99.90;;;;;;1858878;75;21570;-73
2021/09/24 12:14:07;;;;;;;3.55;1.60;;;27.10;99.90;;;;;;1858784;75;21099;-73
2021/09/24 12:16:33;;;;;;;2.65;1.50;;;27.40;99.90;;;;;;1858316;76;21084;-74
2021/09/24 12:18:58;;;;;;;2.08;1.60;;;26.80;99.90;;;;;;1858533;76;21602;-76
2021/09/24 12:21:25;;;;;;;2.12;1.47;;;26.10;99.90;;;;;;1868272;76;21488;-75
2021/09/24 12:23:51;;;;;;;3.30;1.67;;;26.60;99.90;;;;;;1864365;75;21453;-77
2021/09/24 12:26:19;;;;;;;4.42;1.77;;;26.30;99.90;;;;;;1869620;76;21511;-78
2021/09/24 12:28:45;;;;;;;3.75;1.87;;;25.50;99.90;;;;;;1859457;76;21168;-76
2021/09/24 12:31:11;;;;;;;1.60;1.50;;;26.00;99.90;;;;;;1854538;76;21057;-76
2021/09/24 12:33:37;;;;;;;1.62;1.30;;;26.50;99.90;;;;;;1868271;75;21080;-76
2021/09/24 12:36:03;;;;;;;4.47;1.60;;;26.20;99.90;;;;;;1858965;76;21253;-77
2021/09/24 12:38:29;;;;;;;1.98;1.35;;;26.40;99.90;;;;;;1860275;76;21092;-78
2021/09/24 12:40:56;;;;;;;1.42;1.20;;;26.60;99.90;;;;;;1857612;76;21104;-75